Time;durP1;ratioP1;P1;durP2;ratioP2;P2;SDS_P1;SDS_P2;PMS_P1;PMS_P2;Temp;Humidity;BMP_temperature;BMP_pressure;BME280_temperature;BME280_humidity;BME280_pressure;Samples;Min_cycle;Max_cycle;Signal;HPM_P1;HPM_P2
2021/11/16 03:16:18;;;;;;;20.77;13.43;;;;;;;5.77;83.08;95318.47;833614;71;32673;-78
2021/11/16 03:31:20;;;;;;;19.05;12.07;;;;;;;5.80;82.01;95325.04;833621;71;29146;-77
2021/11/16 03:46:14;;;;;;;14.80;10.53;;;;;;;5.71;81.62;95312.91;819446;71;32443;-78
2021/11/16 04:01:51;;;;;;;16.55;11.15;;;;;;;5.67;81.63;95321.43;831710;71;32488;-79
2021/11/16 04:16:15;;;;;;;13.22;9.88;;;;;;;5.56;81.87;95300.44;793633;74;31917;-81
2021/11/16 04:31:18;;;;;;;14.33;10.03;;;;;;;5.53;81.69;95329.53;819141;71;31880;-77
2021/11/16 04:46:11;;;;;;;12.78;9.48;;;;;;;5.50;81.78;95311.02;800057;74;28514;-76
2021/11/16 05:16:27;;;;;;;12.40;10.30;;;;;;;5.54;81.24;95316.80;829257;71;31834;-77
2021/11/16 05:31:13;;;;;;;17.23;11.48;;;;;;;5.63;80.32;95320.59;827477;71;31643;-78
2021/11/16 05:46:08;;;;;;;15.45;10.70;;;;;;;5.65;80.58;95319.58;827115;71;28772;-79
2021/11/16 06:01:08;;;;;;;18.85;11.55;;;;;;;5.75;80.49;95324.95;821887;71;28785;-78
2021/11/16 06:16:08;;;;;;;15.55;11.20;;;;;;;5.88;80.13;95338.16;821778;71;28796;-78
2021/11/16 06:31:20;;;;;;;16.60;10.63;;;;;;;6.03;79.59;95351.98;828444;71;31776;-79
2021/11/16 06:46:09;;;;;;;15.75;11.15;;;;;;;6.30;78.64;95345.59;824731;71;28919;-78
2021/11/16 07:01:15;;;;;;;16.27;11.35;;;;;;;6.55;77.26;95345.96;833174;71;31786;-79
2021/11/16 07:16:15;;;;;;;15.58;10.38;;;;;;;6.54;76.87;95362.62;827894;71;31711;-79
2021/11/16 07:31:23;;;;;;;10.88;9.05;;;;;;;6.70;76.20;95369.35;829441;71;30999;-79
2021/11/16 07:46:14;;;;;;;10.25;6.92;;;;;;;6.90;74.18;95369.61;822837;71;33460;-80
2021/11/16 08:01:33;;;;;;;7.55;6.78;;;;;;;6.82;74.94;95371.33;815307;70;31732;-78
2021/11/16 08:16:11;;;;;;;9.23;6.90;;;;;;;6.77;75.68;95372.56;819392;71;28688;-77
2021/11/16 08:31:14;;;;;;;6.97;5.80;;;;;;;6.73;76.03;95377.48;826373;71;29333;-77
2021/11/16 08:46:17;;;;;;;9.18;6.60;;;;;;;6.86;76.14;95376.34;821532;71;28708;-78
2021/11/16 09:16:11;;;;;;;6.78;5.10;;;;;;;7.12;75.72;95368.31;828883;71;30214;-80
2021/11/16 09:31:20;;;;;;;8.78;6.45;;;;;;;7.48;74.60;95354.34;827319;71;33453;-79
2021/11/16 09:46:28;;;;;;;7.10;6.35;;;;;;;7.85;73.71;95331.42;828341;71;32745;-79
2021/11/16 10:01:24;;;;;;;6.72;6.08;;;;;;;8.05;73.61;95316.92;833329;71;32082;-79
2021/11/16 10:16:08;;;;;;;7.08;6.37;;;;;;;8.12;73.21;95297.90;826238;71;29542;-79
2021/11/16 10:31:16;;;;;;;7.12;6.35;;;;;;;8.20;72.96;95288.28;833637;71;32712;-81
2021/11/16 10:46:09;;;;;;;6.60;6.00;;;;;;;8.14;73.63;95269.68;827916;71;29562;-78
2021/11/16 11:01:17;;;;;;;8.38;6.47;;;;;;;8.02;74.99;95245.04;826879;71;33026;-80
2021/11/16 11:16:16;;;;;;;5.30;4.28;;;;;;;8.05;75.19;95253.70;833181;71;29603;-78
2021/11/16 11:31:28;;;;;;;4.35;4.05;;;;;;;7.92;75.68;95226.16;833465;71;30197;-79
2021/11/16 11:46:14;;;;;;;5.00;4.40;;;;;;;7.85;78.19;95237.86;827066;71;33218;-79
2021/11/16 12:01:12;;;;;;;5.67;4.60;;;;;;;7.56;79.78;95227.24;823015;71;27825;-79
2021/11/16 12:16:41;;;;;;;4.85;4.45;;;;;;;7.56;79.23;95210.27;827304;71;33275;-80
2021/11/16 12:31:11;;;;;;;4.70;4.10;;;;;;;7.62;79.19;95222.33;827966;71;29532;-77
2021/11/16 12:46:12;;;;;;;5.55;5.05;;;;;;;7.69;79.50;95212.18;827927;71;30217;-82
2021/11/16 13:01:11;;;;;;;6.50;4.90;;;;;;;7.51;80.64;95197.16;833903;71;29367;-79
2021/11/16 13:16:08;;;;;;;6.17;5.65;;;;;;;7.15;84.87;95199.48;830821;71;29390;-80
2021/11/16 13:31:17;;;;;;;11.28;8.55;;;;;;;6.81;88.14;95185.37;827112;71;32654;-80
2021/11/16 13:46:15;;;;;;;16.60;12.23;;;;;;;6.94;87.00;95179.48;827279;71;33128;-81
2021/11/16 14:01:30;;;;;;;16.35;11.95;;;;;;;7.03;84.18;95168.84;827688;71;32732;-80
2021/11/16 14:16:21;;;;;;;13.62;10.50;;;;;;;7.14;81.25;95156.17;829126;71;29708;-79
2021/11/16 14:31:13;;;;;;;12.15;9.60;;;;;;;7.36;78.52;95152.16;819607;71;29756;-79
2021/11/16 14:46:15;;;;;;;11.15;9.98;;;;;;;7.41;77.15;95161.31;828280;71;32001;-79
2021/11/16 15:16:55;;;;;;;13.83;10.10;;;;;;;7.49;73.59;95142.32;786884;75;33138;-80
2021/11/16 15:46:46;;;;;;;10.10;7.10;;;;;;;7.55;71.69;95143.92;826816;71;32978;-79
2021/11/16 21:16:09;;;;;;;13.68;8.08;;;;;;;6.97;74.87;95134.09;828427;71;30102;-80
2021/11/16 21:31:16;;;;;;;9.88;8.20;;;;;;;7.11;74.12;95108.37;827005;71;33254;-79
2021/11/16 21:46:15;;;;;;;9.48;8.45;;;;;;;7.07;74.04;95109.92;833314;71;32814;-79
2021/11/16 22:01:10;;;;;;;9.30;8.10;;;;;;;7.05;74.25;95102.86;827754;71;30350;-79
2021/11/16 22:16:10;;;;;;;11.65;7.90;;;;;;;7.04;74.38;95102.60;833604;71;29742;-78
2021/11/16 22:31:10;;;;;;;9.95;7.65;;;;;;;7.04;74.26;95093.47;833401;71;30855;-79
2021/11/16 22:46:19;;;;;;;11.55;8.38;;;;;;;6.86;74.65;95064.64;827974;71;31972;-77
